createdAt,value
2018-06-08T00:01:51.402Z,75.00
2018-06-08T00:04:19.925Z,74.70
2018-06-08T00:06:48.428Z,75.20
2018-06-08T00:09:16.920Z,75.10
2018-06-08T00:11:46.627Z,74.90
2018-06-08T00:14:15.169Z,75.00
2018-06-08T00:16:43.678Z,74.80
2018-06-08T00:19:12.210Z,74.90
2018-06-08T00:21:40.700Z,75.10
2018-06-08T00:24:09.206Z,74.90
2018-06-08T00:26:37.717Z,75.10
2018-06-08T00:29:06.256Z,75.00
2018-06-08T00:31:34.770Z,75.10
2018-06-08T00:34:03.290Z,75.50
2018-06-08T00:36:31.808Z,75.30
2018-06-08T00:39:00.314Z,75.40
2018-06-08T00:41:28.854Z,75.80
2018-06-08T00:43:57.345Z,75.70
2018-06-08T00:46:25.820Z,75.40
2018-06-08T00:48:54.354Z,75.50
2018-06-08T00:51:22.865Z,75.60
2018-06-08T00:53:51.376Z,75.70
2018-06-08T00:56:31.062Z,75.80
2018-06-08T00:58:59.562Z,75.70
2018-06-08T01:01:28.136Z,75.90
2018-06-08T01:03:56.637Z,76.20
2018-06-08T01:06:25.137Z,75.80
2018-06-08T01:08:53.658Z,75.10
2018-06-08T01:11:22.161Z,74.60
2018-06-08T01:13:50.718Z,73.90
2018-06-08T01:16:19.262Z,72.60
2018-06-08T01:18:47.765Z,71.70
2018-06-08T01:21:16.274Z,71.00
2018-06-08T01:23:44.777Z,70.70
2018-06-08T01:26:13.307Z,70.50
2018-06-08T01:28:41.845Z,70.10
2018-06-08T01:31:10.350Z,70.10
2018-06-08T01:33:38.874Z,70.00
2018-06-08T01:36:07.415Z,69.80
2018-06-08T01:38:35.955Z,69.80
2018-06-08T01:41:04.545Z,70.00
2018-06-08T01:43:33.078Z,69.90
2018-06-08T01:46:01.589Z,69.80
2018-06-08T01:48:30.077Z,69.90
2018-06-08T01:50:58.600Z,69.90
2018-06-08T01:53:27.123Z,70.00
2018-06-08T01:55:55.636Z,70.10
2018-06-08T01:58:24.171Z,70.20
2018-06-08T02:00:52.726Z,70.20
2018-06-08T02:03:21.228Z,70.30
2018-06-08T02:05:49.725Z,70.50
2018-06-08T02:08:18.225Z,70.60
2018-06-08T02:10:46.721Z,70.50
2018-06-08T02:13:15.295Z,70.60
2018-06-08T02:15:43.826Z,70.90
2018-06-08T02:18:12.336Z,71.20
2018-06-08T02:20:41.288Z,71.60
2018-06-08T02:23:09.818Z,71.90
2018-06-08T02:25:38.348Z,72.10
2018-06-08T02:30:35.102Z,72.60
2018-06-08T02:33:03.645Z,73.00
2018-06-08T02:35:32.175Z,73.30
2018-06-08T02:38:00.718Z,73.30
2018-06-08T02:40:29.234Z,73.80
2018-06-08T02:42:57.727Z,73.90
2018-06-08T02:45:26.243Z,74.30
2018-06-08T02:47:54.746Z,74.20
2018-06-08T02:50:23.295Z,74.40
2018-06-08T02:52:51.798Z,75.00
2018-06-08T02:55:20.330Z,75.00
2018-06-08T02:57:48.884Z,75.70
2018-06-08T03:00:17.404Z,75.90
2018-06-08T03:02:45.946Z,75.90
2018-06-08T03:05:14.510Z,76.30
2018-06-08T03:07:43.013Z,75.90
2018-06-08T03:10:11.521Z,76.00
2018-06-08T03:12:40.036Z,76.40
2018-06-08T03:15:08.598Z,76.90
2018-06-08T03:17:37.129Z,76.80
2018-06-08T03:20:05.710Z,76.50
2018-06-08T03:22:34.223Z,76.70
2018-06-08T03:25:02.786Z,77.00
2018-06-08T03:29:59.490Z,77.30
2018-06-08T03:32:28.009Z,77.40
2018-06-08T03:34:56.556Z,78.00
2018-06-08T03:37:25.098Z,77.80
2018-06-08T03:39:53.600Z,78.00
2018-06-08T03:42:22.138Z,78.80
2018-06-08T03:44:50.687Z,78.40
2018-06-08T03:47:19.202Z,78.70
2018-06-08T03:49:47.750Z,78.90
2018-06-08T03:52:16.287Z,78.40
2018-06-08T03:54:44.798Z,78.80
2018-06-08T03:57:13.323Z,78.90
2018-06-08T03:59:41.843Z,78.90
2018-06-08T04:02:10.353Z,78.40
2018-06-08T04:04:38.868Z,78.70
2018-06-08T04:07:07.386Z,79.30
2018-06-08T04:09:35.923Z,79.00
2018-06-08T04:12:04.568Z,79.00
2018-06-08T04:14:33.170Z,79.80
2018-06-08T04:17:01.715Z,79.10
2018-06-08T04:19:30.240Z,79.00
2018-06-08T04:21:58.756Z,79.60
2018-06-08T04:24:27.290Z,79.00
2018-06-08T04:26:55.817Z,78.80
2018-06-08T04:29:24.367Z,80.20
2018-06-08T04:31:52.915Z,80.30
2018-06-08T04:34:21.452Z,79.10
2018-06-08T04:36:49.972Z,79.70
2018-06-08T04:39:18.494Z,79.30
2018-06-08T04:41:47.002Z,78.80
2018-06-08T04:44:15.522Z,77.80
2018-06-08T04:46:44.070Z,77.30
2018-06-08T04:49:12.575Z,76.90
2018-06-08T04:51:41.188Z,76.30
2018-06-08T04:54:09.710Z,76.40
2018-06-08T04:56:38.286Z,75.00
2018-06-08T04:59:06.904Z,74.50
2018-06-08T05:01:35.430Z,73.80
2018-06-08T05:04:03.950Z,73.70
2018-06-08T05:06:32.459Z,73.60
2018-06-08T05:09:00.946Z,73.50
2018-06-08T05:11:29.505Z,73.50
2018-06-08T05:13:58.076Z,73.30
2018-06-08T05:16:26.613Z,73.10
2018-06-08T05:18:55.166Z,72.60
2018-06-08T05:21:23.694Z,72.40
2018-06-08T05:23:52.229Z,72.70
2018-06-08T05:26:20.762Z,72.60
2018-06-08T05:28:49.336Z,72.30
2018-06-08T05:31:17.888Z,71.80
2018-06-08T05:33:46.402Z,71.80
2018-06-08T05:36:14.990Z,71.20
2018-06-08T05:38:43.493Z,71.00
2018-06-08T05:41:12.082Z,70.60
2018-06-08T05:43:40.626Z,70.40
2018-06-08T05:46:09.136Z,70.00
2018-06-08T05:48:37.665Z,69.50
2018-06-08T05:51:06.295Z,69.30
2018-06-08T05:53:34.823Z,68.70
2018-06-08T05:56:03.377Z,68.80
2018-06-08T05:58:31.873Z,68.20
2018-06-08T06:01:00.527Z,68.20
2018-06-08T06:03:29.012Z,68.70
2018-06-08T06:05:57.559Z,67.30
2018-06-08T06:08:26.071Z,67.50
2018-06-08T06:10:54.626Z,66.90
2018-06-08T06:13:23.127Z,66.80
2018-06-08T06:15:51.661Z,67.10
2018-06-08T06:18:20.168Z,66.70
2018-06-08T06:20:48.729Z,66.60
2018-06-08T06:23:17.267Z,66.40
2018-06-08T06:25:45.797Z,66.80
2018-06-08T06:28:14.342Z,64.90
2018-06-08T06:30:42.852Z,65.40
2018-06-08T06:33:11.357Z,64.60
2018-06-08T06:35:39.906Z,63.60
2018-06-08T06:38:08.475Z,63.50
2018-06-08T06:40:36.994Z,63.00
2018-06-08T06:43:05.609Z,63.20
2018-06-08T06:45:34.186Z,62.50
2018-06-08T06:48:02.698Z,61.30
2018-06-08T06:50:31.194Z,61.80
2018-06-08T06:52:59.710Z,61.80
2018-06-08T06:55:28.286Z,60.40
2018-06-08T06:57:56.851Z,59.60
2018-06-08T07:00:25.398Z,60.10
2018-06-08T07:02:54.050Z,60.20
2018-06-08T07:05:22.543Z,59.80
2018-06-08T07:07:51.078Z,60.10
2018-06-08T07:10:19.600Z,58.40
2018-06-08T07:12:48.225Z,58.40
2018-06-08T07:15:16.717Z,58.50
2018-06-08T07:17:45.197Z,58.10
2018-06-08T07:20:13.687Z,57.90
2018-06-08T07:22:42.195Z,57.10
2018-06-08T07:25:10.717Z,57.60
2018-06-08T07:27:39.202Z,57.30
2018-06-08T07:30:07.747Z,55.80
2018-06-08T07:32:36.242Z,55.60
2018-06-08T07:35:04.776Z,54.60
2018-06-08T07:37:33.282Z,55.60
2018-06-08T07:40:01.821Z,53.80
2018-06-08T07:42:30.358Z,54.40
2018-06-08T07:44:58.857Z,53.60
2018-06-08T07:47:27.322Z,52.60
2018-06-08T07:49:55.830Z,52.90
2018-06-08T07:52:24.339Z,51.60
2018-06-08T07:54:52.830Z,52.90
2018-06-08T07:57:21.373Z,50.70
2018-06-08T07:59:49.862Z,51.70
2018-06-08T08:02:18.403Z,51.10
2018-06-08T08:04:46.946Z,50.60
2018-06-08T08:07:15.434Z,51.50
2018-06-08T08:09:43.932Z,51.60
2018-06-08T08:12:12.446Z,47.10
2018-06-08T08:14:40.946Z,48.90
2018-06-08T08:17:09.480Z,48.40
2018-06-08T08:22:06.189Z,44.70
2018-06-08T08:24:34.667Z,46.90
2018-06-08T08:27:03.230Z,48.90
2018-06-08T08:29:31.718Z,47.70
2018-06-08T08:32:00.279Z,46.20
2018-06-08T08:34:28.784Z,42.60
2018-06-08T08:36:57.309Z,42.60
2018-06-08T08:39:25.792Z,45.80
2018-06-08T08:41:54.286Z,47.30
2018-06-08T08:44:22.801Z,49.40
2018-06-08T08:46:51.299Z,47.90
2018-06-08T08:49:19.811Z,44.20
2018-06-08T08:51:48.864Z,41.80
2018-06-08T08:54:17.354Z,46.60
2018-06-08T08:56:45.909Z,42.50
2018-06-08T08:59:14.434Z,42.10
2018-06-08T09:01:42.924Z,41.40
2018-06-08T09:04:11.459Z,39.20
2018-06-08T09:06:40.020Z,40.00
2018-06-08T09:09:08.527Z,40.70
2018-06-08T09:11:37.069Z,41.50
2018-06-08T09:14:05.678Z,38.20
2018-06-08T09:16:34.180Z,38.40
2018-06-08T09:19:02.663Z,38.20
2018-06-08T09:21:31.144Z,39.50
2018-06-08T09:23:59.620Z,41.00
2018-06-08T09:26:28.102Z,40.10
2018-06-08T09:28:56.642Z,40.70
2018-06-08T09:31:25.145Z,39.80
2018-06-08T09:33:53.657Z,38.60
2018-06-08T09:36:22.225Z,39.50
2018-06-08T09:38:50.735Z,39.20
2018-06-08T09:41:19.231Z,39.60
2018-06-08T09:43:47.744Z,40.50
2018-06-08T09:46:16.312Z,42.80
2018-06-08T09:48:44.815Z,43.40
2018-06-08T09:51:13.343Z,43.10
2018-06-08T09:53:41.869Z,42.60
2018-06-08T09:56:10.361Z,42.00
2018-06-08T09:58:38.930Z,43.10
2018-06-08T10:01:07.420Z,43.60
2018-06-08T10:03:35.954Z,43.80
2018-06-08T10:06:04.490Z,45.30
2018-06-08T10:08:32.996Z,48.10
2018-06-08T10:11:01.500Z,43.40
2018-06-08T10:13:29.994Z,42.80
2018-06-08T10:15:58.512Z,45.00
2018-06-08T10:18:27.042Z,41.60
2018-06-08T10:20:55.705Z,40.70
2018-06-08T10:23:24.208Z,39.70
2018-06-08T10:25:52.872Z,40.70
2018-06-08T10:28:21.474Z,40.80
2018-06-08T10:30:50.032Z,42.90
2018-06-08T10:33:18.566Z,43.30
2018-06-08T10:35:47.058Z,41.10
2018-06-08T10:38:15.574Z,40.10
2018-06-08T10:40:44.221Z,39.20
2018-06-08T10:43:12.722Z,39.20
2018-06-08T10:45:41.334Z,38.60
2018-06-08T10:48:10.613Z,40.70
2018-06-08T10:50:39.142Z,38.70
2018-06-08T10:53:07.702Z,38.40
2018-06-08T10:55:36.263Z,38.90
2018-06-08T10:58:04.876Z,38.70
2018-06-08T11:00:33.399Z,37.90
2018-06-08T11:03:01.944Z,36.70
2018-06-08T11:05:30.478Z,38.50
2018-06-08T11:07:58.985Z,39.30
2018-06-08T11:10:27.567Z,38.80
2018-06-08T11:12:56.056Z,39.50
2018-06-08T11:15:24.629Z,38.80
2018-06-08T11:17:53.248Z,41.10
2018-06-08T11:20:22.531Z,39.90
2018-06-08T11:22:51.019Z,40.30
2018-06-08T11:25:19.621Z,39.30
2018-06-08T11:27:48.135Z,40.00
2018-06-08T11:30:16.648Z,40.40
2018-06-08T11:32:45.147Z,41.30
2018-06-08T11:35:13.668Z,42.40
2018-06-08T11:37:42.465Z,42.00
2018-06-08T11:40:11.049Z,42.30
2018-06-08T11:42:39.570Z,43.10
2018-06-08T11:45:08.103Z,41.50
2018-06-08T11:47:36.640Z,41.20
2018-06-08T11:50:05.196Z,39.60
2018-06-08T11:52:33.707Z,38.90
2018-06-08T11:55:02.273Z,38.50
2018-06-08T11:57:30.798Z,41.70
2018-06-08T11:59:59.327Z,39.20
2018-06-08T12:02:27.889Z,39.60
2018-06-08T12:07:24.581Z,38.80
2018-06-08T12:09:53.105Z,37.70
2018-06-08T12:12:21.607Z,39.20
2018-06-08T12:14:50.103Z,38.40
2018-06-08T12:17:18.614Z,39.40
2018-06-08T12:19:47.168Z,38.60
2018-06-08T12:22:15.686Z,38.70
2018-06-08T12:24:44.191Z,37.40
2018-06-08T12:27:12.772Z,36.40
2018-06-08T12:29:41.326Z,36.70
2018-06-08T12:32:09.881Z,36.20
2018-06-08T12:34:38.348Z,36.50
2018-06-08T12:37:06.843Z,37.40
2018-06-08T12:39:35.405Z,40.20
2018-06-08T12:42:03.924Z,37.40
2018-06-08T12:44:32.469Z,37.70
2018-06-08T12:47:00.997Z,37.70
2018-06-08T12:49:29.522Z,36.30
2018-06-08T12:51:58.010Z,36.50
2018-06-08T12:54:26.542Z,36.70
2018-06-08T12:56:55.041Z,37.80
2018-06-08T12:59:23.517Z,37.50
2018-06-08T13:01:52.099Z,37.30
2018-06-08T13:04:20.596Z,38.70
2018-06-08T13:06:49.106Z,38.20
2018-06-08T13:09:17.635Z,38.40
2018-06-08T13:11:46.177Z,38.10
2018-06-08T13:14:14.842Z,38.00
2018-06-08T13:16:43.348Z,38.10
2018-06-08T13:19:11.896Z,37.90
2018-06-08T13:21:40.424Z,37.30
2018-06-08T13:24:08.913Z,38.00
2018-06-08T13:26:37.423Z,38.70
2018-06-08T13:29:06.002Z,39.00
2018-06-08T13:31:34.498Z,39.20
2018-06-08T13:34:03.022Z,39.00
2018-06-08T13:36:31.536Z,37.00
2018-06-08T13:39:00.102Z,38.80
2018-06-08T13:41:28.600Z,38.80
2018-06-08T13:43:57.230Z,38.40
2018-06-08T13:46:48.710Z,38.20
2018-06-08T13:49:17.218Z,38.70
2018-06-08T13:51:45.843Z,37.80
2018-06-08T13:54:14.350Z,37.60
2018-06-08T13:56:42.867Z,38.20
2018-06-08T14:01:39.549Z,37.00
2018-06-08T14:04:08.058Z,37.20
2018-06-08T14:06:37.120Z,37.30
2018-06-08T14:09:06.634Z,37.30
2018-06-08T14:11:35.146Z,38.60
2018-06-08T14:14:04.001Z,37.90
2018-06-08T14:16:32.578Z,38.20
2018-06-08T14:19:01.095Z,37.70
2018-06-08T14:21:29.608Z,38.30
2018-06-08T14:23:58.109Z,38.40
2018-06-08T14:26:26.691Z,38.80
2018-06-08T14:28:55.201Z,38.90
2018-06-08T14:31:23.811Z,38.30
2018-06-08T14:33:52.298Z,37.10
2018-06-08T14:36:20.846Z,38.60
2018-06-08T14:38:49.334Z,38.80
2018-06-08T14:41:17.954Z,38.80
2018-06-08T14:43:46.487Z,38.70
2018-06-08T14:46:15.148Z,39.80
2018-06-08T14:48:43.912Z,39.60
2018-06-08T14:51:12.405Z,40.00
2018-06-08T14:53:41.003Z,40.10
2018-06-08T14:56:09.514Z,40.40
2018-06-08T14:58:38.028Z,39.60
2018-06-08T15:01:06.596Z,39.40
2018-06-08T15:03:35.083Z,39.30
2018-06-08T15:06:03.630Z,39.90
2018-06-08T15:08:32.141Z,39.40
2018-06-08T15:11:00.635Z,39.80
2018-06-08T15:13:29.128Z,38.20
2018-06-08T15:15:57.610Z,38.40
2018-06-08T15:18:26.118Z,38.40
2018-06-08T15:20:54.630Z,39.60
2018-06-08T15:23:23.116Z,38.20
2018-06-08T15:25:51.601Z,39.20
2018-06-08T15:28:20.119Z,39.20
2018-06-08T15:30:48.628Z,39.40
2018-06-08T15:33:17.126Z,39.60
2018-06-08T15:35:45.614Z,39.50
2018-06-08T15:38:14.092Z,38.90
2018-06-08T15:40:42.670Z,39.40
2018-06-08T15:43:11.116Z,39.50
2018-06-08T15:45:39.623Z,38.40
2018-06-08T15:48:08.099Z,38.10
2018-06-08T15:50:36.613Z,39.10
2018-06-08T15:53:05.204Z,40.00
2018-06-08T15:55:33.734Z,38.80
2018-06-08T15:58:02.511Z,39.20
2018-06-08T16:00:31.052Z,40.20
2018-06-08T16:02:59.511Z,40.30
2018-06-08T16:05:28.056Z,39.30
2018-06-08T16:07:56.565Z,40.70
2018-06-08T16:10:25.050Z,39.10
2018-06-08T16:12:53.548Z,39.90
2018-06-08T16:15:22.034Z,40.70
2018-06-08T16:17:50.570Z,40.70
2018-06-08T16:20:19.110Z,39.50
2018-06-08T16:22:47.634Z,40.30
2018-06-08T16:25:16.098Z,39.20
2018-06-08T16:27:44.607Z,40.60
2018-06-08T16:30:13.108Z,40.60
2018-06-08T16:32:41.600Z,41.50
2018-06-08T16:35:10.202Z,41.60
2018-06-08T16:37:38.725Z,41.40
2018-06-08T16:40:07.236Z,41.40
2018-06-08T16:42:35.866Z,40.90
2018-06-08T16:45:04.412Z,41.00
2018-06-08T16:47:32.904Z,40.80
2018-06-08T16:50:01.604Z,40.90
2018-06-08T16:52:30.129Z,41.90
2018-06-08T16:54:58.668Z,41.80
2018-06-08T16:57:27.158Z,41.70
2018-06-08T16:59:55.636Z,41.80
2018-06-08T17:02:24.150Z,41.50
2018-06-08T17:04:52.840Z,41.20
2018-06-08T17:07:21.365Z,41.80
2018-06-08T17:09:49.891Z,41.90
2018-06-08T17:12:18.379Z,41.90
2018-06-08T17:14:46.878Z,42.80
2018-06-08T17:17:15.410Z,43.30
2018-06-08T17:19:43.884Z,41.90
2018-06-08T17:22:12.397Z,42.50
2018-06-08T17:24:40.958Z,42.40
2018-06-08T17:27:09.470Z,42.80
2018-06-08T17:29:38.086Z,42.40
2018-06-08T17:32:06.633Z,43.40
2018-06-08T17:34:35.156Z,43.00
2018-06-08T17:37:03.659Z,43.90
2018-06-08T17:39:32.310Z,44.20
2018-06-08T17:42:00.823Z,43.70
2018-06-08T17:44:29.442Z,43.80
2018-06-08T17:46:58.030Z,44.50
2018-06-08T17:49:26.544Z,43.90
2018-06-08T17:51:55.121Z,44.90
2018-06-08T17:54:23.791Z,45.20
2018-06-08T17:56:52.278Z,45.00
2018-06-08T17:59:20.799Z,44.50
2018-06-08T18:01:49.294Z,45.00
2018-06-08T18:04:17.822Z,45.60
2018-06-08T18:06:46.334Z,46.30
2018-06-08T18:09:14.919Z,47.00
2018-06-08T18:11:43.389Z,47.80
2018-06-08T18:14:11.877Z,48.50
2018-06-08T18:16:40.349Z,49.00
2018-06-08T18:19:08.898Z,48.70
2018-06-08T18:21:37.462Z,49.10
2018-06-08T18:24:06.028Z,49.30
2018-06-08T18:26:34.517Z,50.10
2018-06-08T18:29:03.111Z,50.30
2018-06-08T18:31:31.653Z,51.00
2018-06-08T18:34:00.172Z,52.00
2018-06-08T18:36:28.734Z,51.90
2018-06-08T18:38:57.237Z,53.10
2018-06-08T18:43:53.955Z,51.90
2018-06-08T18:46:22.462Z,53.00
2018-06-08T18:48:51.296Z,53.50
2018-06-08T18:51:19.835Z,52.30
2018-06-08T18:53:48.370Z,53.90
2018-06-08T18:56:16.893Z,53.80
2018-06-08T18:58:45.356Z,53.30
2018-06-08T19:01:13.855Z,54.10
2018-06-08T19:03:42.423Z,54.60
2018-06-08T19:06:10.898Z,55.10
2018-06-08T19:08:39.397Z,56.30
2018-06-08T19:11:07.900Z,57.00
2018-06-08T19:13:36.394Z,57.50
2018-06-08T19:16:04.910Z,57.80
2018-06-08T19:18:33.440Z,58.10
2018-06-08T19:21:01.978Z,58.70
2018-06-08T19:23:30.504Z,58.70
2018-06-08T19:25:59.060Z,59.20
2018-06-08T19:28:27.590Z,59.70
2018-06-08T19:30:56.131Z,59.20
2018-06-08T19:33:24.690Z,59.20
2018-06-08T19:35:53.204Z,59.40
2018-06-08T19:38:21.782Z,59.80
2018-06-08T19:40:50.298Z,60.20
2018-06-08T19:43:18.808Z,60.70
2018-06-08T19:45:47.347Z,60.90
2018-06-08T19:48:15.857Z,61.00
2018-06-08T19:50:44.387Z,61.30
2018-06-08T19:53:12.934Z,61.50
2018-06-08T19:55:41.495Z,61.80
2018-06-08T19:58:11.179Z,62.30
2018-06-08T20:00:39.706Z,61.90
2018-06-08T20:03:09.346Z,62.30
2018-06-08T20:05:37.870Z,62.40
2018-06-08T20:08:06.486Z,62.70
2018-06-08T20:10:34.988Z,63.20
2018-06-08T20:13:03.492Z,63.20
2018-06-08T20:15:32.040Z,63.80
2018-06-08T20:18:00.570Z,63.90
2018-06-08T20:20:29.050Z,64.00
2018-06-08T20:22:57.561Z,64.10
2018-06-08T20:25:26.107Z,64.50
2018-06-08T20:27:54.643Z,64.50
2018-06-08T20:30:23.128Z,64.60
2018-06-08T20:32:51.647Z,64.90
2018-06-08T20:35:20.187Z,65.30
2018-06-08T20:37:48.716Z,65.50
2018-06-08T20:40:17.294Z,65.80
2018-06-08T20:42:45.798Z,66.20
2018-06-08T20:45:14.374Z,65.80
2018-06-08T20:47:42.869Z,65.50
2018-06-08T20:50:11.453Z,65.80
2018-06-08T20:52:39.960Z,66.00
2018-06-08T20:55:08.505Z,66.30
2018-06-08T20:57:37.058Z,66.20
2018-06-08T21:00:05.561Z,66.40
2018-06-08T21:02:34.182Z,66.40
2018-06-08T21:05:02.664Z,66.40
2018-06-08T21:07:31.162Z,66.60
2018-06-08T21:09:59.670Z,66.60
2018-06-08T21:12:28.189Z,66.10
2018-06-08T21:14:56.715Z,66.40
2018-06-08T21:17:25.361Z,66.70
2018-06-08T21:19:53.842Z,66.70
2018-06-08T21:22:22.358Z,66.70
2018-06-08T21:24:50.896Z,66.90
2018-06-08T21:27:19.400Z,66.80
2018-06-08T21:29:47.886Z,67.30
2018-06-08T21:32:16.466Z,67.30
2018-06-08T21:34:44.970Z,67.60
2018-06-08T21:37:13.475Z,67.90
2018-06-08T21:39:41.964Z,68.10
2018-06-08T21:42:10.456Z,68.20
2018-06-08T21:44:38.936Z,68.30
2018-06-08T21:47:07.470Z,68.60
2018-06-08T21:49:35.949Z,68.50
2018-06-08T21:52:04.480Z,68.90
2018-06-08T21:54:33.050Z,69.20
2018-06-08T21:57:01.523Z,69.40
2018-06-08T21:59:30.038Z,70.00
2018-06-08T22:01:58.539Z,70.00
2018-06-08T22:04:27.093Z,70.50
2018-06-08T22:06:55.600Z,70.60
2018-06-08T22:09:24.114Z,70.80
2018-06-08T22:11:52.642Z,71.00
2018-06-08T22:14:21.212Z,71.20
2018-06-08T22:16:49.695Z,71.20
2018-06-08T22:19:18.246Z,71.80
2018-06-08T22:21:46.800Z,72.00
2018-06-08T22:24:15.431Z,72.20
2018-06-08T22:26:43.913Z,72.40
2018-06-08T22:29:12.435Z,72.70
2018-06-08T22:31:40.953Z,72.90
2018-06-08T22:34:09.460Z,72.90
2018-06-08T22:36:38.003Z,73.10
2018-06-08T22:39:07.286Z,73.20
2018-06-08T22:41:35.838Z,73.30
2018-06-08T22:44:04.342Z,73.40
2018-06-08T22:46:32.853Z,73.60
2018-06-08T22:49:01.368Z,73.60
2018-06-08T22:51:29.858Z,73.30
2018-06-08T22:53:58.372Z,73.40
2018-06-08T22:56:27.003Z,73.70
2018-06-08T22:58:55.524Z,73.80
2018-06-08T23:01:24.005Z,74.30
2018-06-08T23:03:52.502Z,74.40
2018-06-08T23:06:21.012Z,74.50
2018-06-08T23:08:49.522Z,75.00
2018-06-08T23:11:18.085Z,75.50
2018-06-08T23:13:46.602Z,75.40
2018-06-08T23:16:15.106Z,75.90
2018-06-08T23:18:43.597Z,75.90
2018-06-08T23:21:12.091Z,76.20
2018-06-08T23:23:40.610Z,76.00
2018-06-08T23:26:09.094Z,76.50
2018-06-08T23:28:37.600Z,76.70
2018-06-08T23:31:06.133Z,76.70
2018-06-08T23:33:34.665Z,76.70
2018-06-08T23:36:03.230Z,76.80
2018-06-08T23:38:31.712Z,77.40
2018-06-08T23:41:00.194Z,77.40
2018-06-08T23:43:28.682Z,77.70
2018-06-08T23:45:57.203Z,78.10
2018-06-08T23:48:25.686Z,78.60
2018-06-08T23:50:54.197Z,78.70
2018-06-08T23:53:22.712Z,78.50
2018-06-08T23:55:51.266Z,78.40
2018-06-08T23:58:19.778Z,78.30
